Bhera Weather



Bhera's Current Weather

Temprature 16.66o scattered clouds

scattered clouds

Rain: 0 %

Min Temprature16.66o
Max Temprature16.66o
Humidity36
Wind Speed1.84 m/h
Sun Rise06:40:42
Sun Set18:02:27
Current Time: 26-Feb-2020 23:22:00
Lat/Lon: 32.48, 72.91




Bhera's Geo Location



Bhera's Weather Forecast

Time Overall Temp Min Temp Max Temp Humidity Wind Speed Rain
27-Feb-2020 (Thu)
02:00:00 overcast clouds 15.940 15.940 15.940 38 2.25 m/h 0 %
05:00:00 overcast clouds 14.280 14.280 14.280 44 2.1 m/h 0 %
08:00:00 overcast clouds 16.330 16.330 16.330 47 2.18 m/h 0 %
11:00:00 overcast clouds 23.820 23.820 23.820 34 1.4 m/h 0 %
14:00:00 clear sky 27.330 27.330 27.330 26 1.2 m/h 0 %
17:00:00 clear sky 25.440 25.440 25.440 35 1.85 m/h 0 %
20:00:00 clear sky 19.840 19.840 19.840 39 2.69 m/h 0 %
23:00:00 light rain 17.140 17.140 17.140 52 2.81 m/h 13 %
28-Feb-2020 (Fri)
02:00:00 light rain 14.760 14.760 14.760 60 2.49 m/h 19 %
05:00:00 light rain 13.740 13.740 13.740 65 2.5 m/h 37 %
08:00:00 overcast clouds 16.750 16.750 16.750 58 0.92 m/h 0 %
11:00:00 overcast clouds 23.190 23.190 23.190 37 2.19 m/h 0 %
14:00:00 light rain 25.490 25.490 25.490 35 3.06 m/h 38 %
17:00:00 light rain 22.660 22.660 22.660 47 2.63 m/h 31 %
20:00:00 light rain 17.550 17.550 17.550 69 3.77 m/h 263 %
23:00:00 light rain 16.400 16.400 16.400 76 1.88 m/h 275 %
29-Feb-2020 (Sat)
02:00:00 light rain 16.290 16.290 16.290 76 3.18 m/h 175 %
05:00:00 light rain 15.530 15.530 15.530 81 3.19 m/h 150 %
08:00:00 light rain 16.710 16.710 16.710 79 2.4 m/h 81 %
11:00:00 light rain 23.020 23.020 23.020 50 5.07 m/h 75 %
14:00:00 light rain 25.760 25.760 25.760 41 4.29 m/h 44 %
17:00:00 light rain 19.590 19.590 19.590 67 7.11 m/h 162 %
20:00:00 moderate rain 15.850 15.850 15.850 84 4.3 m/h 344 %
23:00:00 broken clouds 14.500 14.500 14.500 83 3.35 m/h 0 %
01-Mar-2020 (Sun)
02:00:00 clear sky 14.200 14.200 14.200 80 2.95 m/h 0 %
05:00:00 clear sky 13.800 13.800 13.800 79 2.71 m/h 0 %
08:00:00 clear sky 16.950 16.950 16.950 70 1.97 m/h 0 %
11:00:00 clear sky 23.510 23.510 23.510 45 1.67 m/h 0 %
14:00:00 clear sky 25.880 25.880 25.880 37 2.17 m/h 0 %
17:00:00 clear sky 25.060 25.060 25.060 47 0.6 m/h 0 %
20:00:00 clear sky 19.340 19.340 19.340 48 2.79 m/h 0 %
23:00:00 clear sky 18.340 18.340 18.340 50 2.82 m/h 0 %
02-Mar-2020 (Mon)
02:00:00 clear sky 16.380 16.380 16.380 55 1.82 m/h 0 %
05:00:00 clear sky 15.410 15.410 15.410 58 1.42 m/h 0 %
08:00:00 scattered clouds 18.220 18.220 18.220 56 0.64 m/h 0 %
11:00:00 scattered clouds 24.750 24.750 24.750 40 0.89 m/h 0 %
14:00:00 broken clouds 27.400 27.400 27.400 31 0.98 m/h 0 %
17:00:00 scattered clouds 25.880 25.880 25.880 40 1.28 m/h 0 %
20:00:00 clear sky 19.250 19.250 19.250 46 1.03 m/h 0 %
23:00:00 clear sky 18.750 18.750 18.750 45 1.92 m/h 0 %


Bhera's Tourist Spots

Historical Places in Bhera

Famous Cities (61)